Mansfield, OH (44903)

1:41 AM EDT on March 31, 2015 (GMT -0400)
RICHLAND COUNTY/N8TWM | | Change Station
CLOSE
Current Station
Personal Weather Station
Location: MANSFIELD, OH
Elevation: 1207 ft
Nearby Weather Stations

Elev 1207 ft 40.77 °N, 82.52 °W | Updated 3 seconds ago

Overcast
Overcast
45.5 °F
Feels Like 46 °F
N
0.0
Wind Variable Wind from West
Gusts 0.0 mph

Today
High -- | Low -- °F
--% Chance of Precip.
Yesterday
High -- | Low -- °F
Precip. -- in
7:15 AM 7:53 PM
Waxing Gibbous, 84% visible
Pressure 29.98 in
Visibility 10.0 miles
Clouds Few 4000 ft
Overcast 7000 ft
Windchill 46 °F
Dew Point 37 °F
Humidity 71%
Rainfall 0.00 in
Snow Depth Not available.
UV 0 out of 12
Pollen 6.00 out of 12
Air Quality Not available.
Flu Activity Not available.
METAR KMFD 310452Z AUTO 28005KT 10SM FEW040 OVC070 08/00 A2996 RMK AO2 SLP150 T00780000 401170022

More Conditions Fewer Conditions

Pressure 29.98 in
Visibility 10.0 miles
Clouds Few 4000 ft
Overcast 7000 ft
Windchill 46 °F
Dew Point 37 °F
Humidity 71%
Rainfall 0.00 in
Snow Depth Not available.
UV 0 out of 12
Pollen 6.00 out of 12
Air Quality Not available.
Flu Activity Not available.
METAR KMFD 310452Z AUTO 28005KT 10SM FEW040 OVC070 08/00 A2996 RMK AO2 SLP150 T00780000 401170022

More Conditions Fewer Conditions

Nowcast | as of 12:18 am EDT on March 31, 2015

Scattered light rain and drizzle will continue to develop and move east through 2am...mainly along and west of a line from Cleveland to Millersburg. Rainfall will be less than a tenth of an inch. As the rain moves on east over the snowbelt...some snow can develop from 2am through 8am.

×

10-Day Weather Forecast

Almanac

Astronomy

Mar. 31, 2015 Rise Set
Actual Time
Civil Twilight
Nautical Twilight
Astronomical Twilight
Moon
Length of Visible Light
Length of Day
Tomorrow will be .
, % of the Moon is Illuminated

Today's Extremes

State Highs State Lows

Community

WunderPhotos

Upload Photos

1,809,724 photos uploaded!

WunderBlogs® & News

Nearby

Air Quality

  Air Quality AQ Index Pollutant
Not available.

Snow Depth

Station Depth Elevation

Earthquake Activity

City Distance Mag. Time & Date
Minimum magnitude displayed is 2.5.

Coastal Water Temperatures

Place Temperature

Stations

Nearby Weather Stations

Station Location Temp. Windchill Dew Point Humidity Wind Precip. Elev Updated Type